createdAt,value
2018-08-04T00:01:53.670Z,12.53
2018-08-04T00:04:22.018Z,10.23
2018-08-04T00:06:50.369Z,11.73
2018-08-04T00:09:18.707Z,11.33
2018-08-04T00:11:47.431Z,13.00
2018-08-04T00:14:15.714Z,11.73
2018-08-04T00:16:44.057Z,12.50
2018-08-04T00:19:12.266Z,10.97
2018-08-04T00:21:40.465Z,13.10
2018-08-04T00:24:08.942Z,11.03
2018-08-04T00:26:37.318Z,12.23
2018-08-04T00:29:05.553Z,11.00
2018-08-04T00:31:34.074Z,11.20
2018-08-04T00:34:02.320Z,12.60
2018-08-04T00:36:30.762Z,12.13
2018-08-04T00:38:59.141Z,11.00
2018-08-04T00:41:27.385Z,11.47
2018-08-04T00:43:55.653Z,12.87
2018-08-04T00:46:23.969Z,11.23
2018-08-04T00:48:52.354Z,13.93
2018-08-04T00:51:20.577Z,14.27
2018-08-04T00:53:48.902Z,15.40
2018-08-04T00:56:17.287Z,11.93
2018-08-04T00:58:45.650Z,14.67
2018-08-04T01:01:13.865Z,11.87
2018-08-04T01:03:42.478Z,15.33
2018-08-04T01:06:10.734Z,11.47
2018-08-04T01:08:39.241Z,11.40
2018-08-04T01:11:07.628Z,15.33
2018-08-04T01:13:35.877Z,11.57
2018-08-04T01:16:04.234Z,14.13
2018-08-04T01:18:32.625Z,13.20
2018-08-04T01:21:01.146Z,14.23
2018-08-04T01:23:29.414Z,13.97
2018-08-04T01:25:57.658Z,14.50
2018-08-04T01:28:26.052Z,12.57
2018-08-04T01:30:54.570Z,12.07
2018-08-04T01:33:23.951Z,14.63
2018-08-04T01:35:51.906Z,13.40
2018-08-04T01:38:20.126Z,11.87
2018-08-04T01:40:48.374Z,12.43
2018-08-04T01:43:16.706Z,12.23
2018-08-04T01:45:44.982Z,12.60
2018-08-04T01:48:13.292Z,12.43
2018-08-04T01:50:41.495Z,12.43
2018-08-04T01:53:09.768Z,14.57
2018-08-04T01:55:38.067Z,10.90
2018-08-04T01:58:06.267Z,16.70
2018-08-04T02:00:34.496Z,11.57
2018-08-04T02:03:02.484Z,12.50
2018-08-04T02:05:30.751Z,14.63
2018-08-04T02:07:59.022Z,12.47
2018-08-04T02:10:27.315Z,13.17
2018-08-04T02:12:55.544Z,12.07
2018-08-04T02:15:23.815Z,16.20
2018-08-04T02:17:52.045Z,12.33
2018-08-04T02:20:20.314Z,15.80
2018-08-04T02:22:48.551Z,14.03
2018-08-04T02:25:17.459Z,14.47
2018-08-04T02:27:45.747Z,17.30
2018-08-04T02:30:14.018Z,14.70
2018-08-04T02:32:42.252Z,13.83
2018-08-04T02:35:10.467Z,12.73
2018-08-04T02:37:38.880Z,13.13
2018-08-04T02:40:07.283Z,12.10
2018-08-04T02:42:35.496Z,13.60
2018-08-04T02:45:03.911Z,13.70
2018-08-04T02:47:32.191Z,14.93
2018-08-04T02:50:01.043Z,15.73
2018-08-04T02:52:29.315Z,14.20
2018-08-04T02:54:57.584Z,14.03
2018-08-04T02:57:25.771Z,14.50
2018-08-04T02:59:54.172Z,14.70
2018-08-04T03:02:22.483Z,14.43
2018-08-04T03:04:50.694Z,12.87
2018-08-04T03:07:18.902Z,14.50
2018-08-04T03:09:47.309Z,15.10
2018-08-04T03:12:15.791Z,13.77
2018-08-04T03:14:44.005Z,14.13
2018-08-04T03:17:12.235Z,13.47
2018-08-04T03:19:40.475Z,14.10
2018-08-04T03:22:08.777Z,14.40
2018-08-04T03:24:37.027Z,16.97
2018-08-04T03:27:05.239Z,14.57
2018-08-04T03:29:33.498Z,14.50
2018-08-04T03:32:01.951Z,14.43
2018-08-04T03:34:30.287Z,15.87
2018-08-04T03:36:58.523Z,14.93
2018-08-04T03:39:26.814Z,14.93
2018-08-04T03:41:55.213Z,15.23
2018-08-04T03:44:23.456Z,14.30
2018-08-04T03:46:51.463Z,15.97
2018-08-04T03:49:19.682Z,17.47
2018-08-04T03:51:47.910Z,17.80
2018-08-04T03:54:16.346Z,13.70
2018-08-04T03:56:44.559Z,13.27
2018-08-04T03:59:12.762Z,14.00
2018-08-04T04:01:40.985Z,14.93
2018-08-04T04:04:10.224Z,14.80
2018-08-04T04:06:38.760Z,13.63
2018-08-04T04:09:07.145Z,13.27
2018-08-04T04:11:35.370Z,14.70
2018-08-04T04:14:05.142Z,16.17
2018-08-04T04:16:33.395Z,14.30
2018-08-04T04:19:01.891Z,18.30
2018-08-04T04:21:30.211Z,14.70
2018-08-04T04:23:58.427Z,16.00
2018-08-04T04:26:26.731Z,18.40
2018-08-04T04:28:55.127Z,15.03
2018-08-04T04:31:23.367Z,15.13
2018-08-04T04:33:51.615Z,18.23
2018-08-04T04:36:19.879Z,15.73
2018-08-04T04:38:48.109Z,14.50
2018-08-04T04:41:16.370Z,14.90
2018-08-04T04:43:44.575Z,15.60
2018-08-04T04:46:12.844Z,15.70
2018-08-04T04:48:41.035Z,19.37
2018-08-04T04:51:09.390Z,17.03
2018-08-04T04:53:37.598Z,18.30
2018-08-04T04:56:05.898Z,17.77
2018-08-04T04:58:34.110Z,17.30
2018-08-04T05:01:02.495Z,19.57
2018-08-04T05:03:31.059Z,22.70
2018-08-04T05:05:59.246Z,18.67
2018-08-04T05:08:27.766Z,17.33
2018-08-04T05:10:56.137Z,19.57
2018-08-04T05:13:25.113Z,17.33
2018-08-04T05:15:53.298Z,18.60
2018-08-04T05:18:21.505Z,19.03
2018-08-04T05:20:49.821Z,19.97
2018-08-04T05:23:18.052Z,22.80
2018-08-04T05:25:46.275Z,19.47
2018-08-04T05:28:14.485Z,17.47
2018-08-04T05:30:43.042Z,18.53
2018-08-04T05:33:11.330Z,19.27
2018-08-04T05:35:39.692Z,19.03
2018-08-04T05:38:07.946Z,22.73
2018-08-04T05:40:36.198Z,19.17
2018-08-04T05:43:04.415Z,21.23
2018-08-04T05:45:32.663Z,21.80
2018-08-04T05:48:00.969Z,21.07
2018-08-04T05:50:29.210Z,21.40
2018-08-04T05:52:57.542Z,23.60
2018-08-04T05:55:25.518Z,20.20
2018-08-04T05:57:53.863Z,22.57
2018-08-04T06:00:22.054Z,24.57
2018-08-04T06:02:50.430Z,25.20
2018-08-04T06:05:18.746Z,21.93
2018-08-04T06:07:47.012Z,24.90
2018-08-04T06:10:15.251Z,23.27
2018-08-04T06:12:43.516Z,24.97
2018-08-04T06:15:11.737Z,21.13
2018-08-04T06:17:40.163Z,20.63
2018-08-04T06:20:08.461Z,22.03
2018-08-04T06:22:36.672Z,23.03
2018-08-04T06:25:04.768Z,21.33
2018-08-04T06:27:32.978Z,19.53
2018-08-04T06:30:02.030Z,18.90
2018-08-04T06:32:30.331Z,21.87
2018-08-04T06:34:58.560Z,20.13
2018-08-04T06:37:26.771Z,18.87
2018-08-04T06:39:55.043Z,19.33
2018-08-04T06:42:23.475Z,21.70
2018-08-04T06:44:51.695Z,20.00
2018-08-04T06:47:19.924Z,19.23
2018-08-04T06:49:48.838Z,16.27
2018-08-04T06:52:17.077Z,17.97
2018-08-04T06:54:45.355Z,19.30
2018-08-04T06:57:13.590Z,18.17
2018-08-04T06:59:41.823Z,19.27
2018-08-04T07:02:10.079Z,18.83
2018-08-04T07:04:38.366Z,18.40
2018-08-04T07:07:07.160Z,17.93
2018-08-04T07:09:35.398Z,15.83
2018-08-04T07:12:04.350Z,16.50
2018-08-04T07:14:32.364Z,15.43
2018-08-04T07:17:00.640Z,16.73
2018-08-04T07:19:29.112Z,18.10
2018-08-04T07:21:57.358Z,16.37
2018-08-04T07:24:25.410Z,15.77
2018-08-04T07:26:53.658Z,16.73
2018-08-04T07:29:21.893Z,14.87
2018-08-04T07:31:50.326Z,15.53
2018-08-04T07:34:18.677Z,13.10
2018-08-04T07:36:47.572Z,15.40
2018-08-04T07:39:15.918Z,15.87
2018-08-04T07:41:44.130Z,13.37
2018-08-04T07:44:12.370Z,16.40
2018-08-04T07:46:40.746Z,17.30
2018-08-04T07:49:10.017Z,15.77
2018-08-04T07:51:38.335Z,16.07
2018-08-04T07:54:06.659Z,16.27
2018-08-04T07:56:34.933Z,14.63
2018-08-04T07:59:03.492Z,16.90
2018-08-04T08:01:31.974Z,16.03
2018-08-04T08:04:00.189Z,14.13
2018-08-04T08:06:28.374Z,13.77
2018-08-04T08:08:57.044Z,15.27
2018-08-04T08:11:25.357Z,15.87
2018-08-04T08:13:53.539Z,14.10
2018-08-04T08:16:23.196Z,14.27
2018-08-04T08:18:51.818Z,12.83
2018-08-04T08:21:20.118Z,13.50
2018-08-04T08:23:48.352Z,12.17
2018-08-04T08:26:16.757Z,12.90
2018-08-04T08:28:45.081Z,12.70
2018-08-04T08:31:13.364Z,14.40
2018-08-04T08:33:41.609Z,12.30
2018-08-04T08:36:10.305Z,12.00
2018-08-04T08:38:38.541Z,13.63
2018-08-04T08:41:06.826Z,14.17
2018-08-04T08:43:35.096Z,12.37
2018-08-04T08:46:03.319Z,12.47
2018-08-04T08:48:32.595Z,12.90
2018-08-04T08:51:00.919Z,11.70
2018-08-04T08:53:29.332Z,11.70
2018-08-04T08:55:57.360Z,10.90
2018-08-04T08:58:25.578Z,11.80
2018-08-04T09:00:53.970Z,9.97
2018-08-04T09:03:22.186Z,10.00
2018-08-04T09:05:50.501Z,11.70
2018-08-04T09:08:18.766Z,10.67
2018-08-04T09:10:47.078Z,10.40
2018-08-04T09:13:15.269Z,9.37
2018-08-04T09:15:43.603Z,10.00
2018-08-04T09:18:11.818Z,11.37
2018-08-04T09:20:40.691Z,9.73
2018-08-04T09:23:09.734Z,9.80
2018-08-04T09:25:38.470Z,9.17
2018-08-04T09:28:06.665Z,9.67
2018-08-04T09:30:34.918Z,11.10
2018-08-04T09:33:03.174Z,9.57
2018-08-04T09:35:31.411Z,10.87
2018-08-04T09:37:59.701Z,12.67
2018-08-04T09:40:27.930Z,9.53
2018-08-04T09:42:56.149Z,9.47
2018-08-04T09:45:24.845Z,9.43
2018-08-04T09:47:53.771Z,11.10
2018-08-04T09:50:21.966Z,9.10
2018-08-04T09:52:50.179Z,9.30
2018-08-04T09:55:18.487Z,9.80
2018-08-04T09:57:47.388Z,9.67
2018-08-04T10:00:21.178Z,8.00
2018-08-04T10:02:49.426Z,8.37
2018-08-04T10:05:17.810Z,8.30
2018-08-04T10:07:45.966Z,9.20
2018-08-04T10:10:14.215Z,10.87
2018-08-04T10:12:42.390Z,9.93
2018-08-04T10:15:11.478Z,7.93
2018-08-04T10:17:40.206Z,8.90
2018-08-04T10:20:10.656Z,7.87
2018-08-04T10:22:39.467Z,7.73
2018-08-04T10:25:08.543Z,6.90
2018-08-04T10:27:37.269Z,8.50
2018-08-04T10:30:08.190Z,8.97
2018-08-04T10:32:36.625Z,10.73
2018-08-04T10:35:05.104Z,9.30
2018-08-04T10:37:33.630Z,14.40
2018-08-04T10:40:01.929Z,8.10
2018-08-04T10:42:30.225Z,26.27
2018-08-04T10:44:58.465Z,7.73
2018-08-04T10:47:26.699Z,7.50
2018-08-04T10:49:56.119Z,8.03
2018-08-04T10:52:25.457Z,7.67
2018-08-04T10:54:54.035Z,10.43
2018-08-04T10:57:22.278Z,7.60
2018-08-04T10:59:50.488Z,7.57
2018-08-04T11:02:18.766Z,7.53
2018-08-04T11:04:47.154Z,9.33
2018-08-04T11:07:15.434Z,7.50
2018-08-04T11:09:43.627Z,8.70
2018-08-04T11:12:11.852Z,8.07
2018-08-04T11:14:40.149Z,7.97
2018-08-04T11:17:08.595Z,8.77
2018-08-04T11:19:36.826Z,11.53
2018-08-04T11:22:05.314Z,7.50
2018-08-04T11:24:33.305Z,7.97
2018-08-04T11:27:01.606Z,7.77
2018-08-04T11:29:29.810Z,8.07
2018-08-04T11:31:58.050Z,7.93
2018-08-04T11:34:26.246Z,8.00
2018-08-04T11:36:55.173Z,7.50
2018-08-04T11:39:23.410Z,8.60
2018-08-04T11:41:51.594Z,12.50
2018-08-04T11:44:19.838Z,8.20
2018-08-04T11:46:48.095Z,8.30
2018-08-04T11:49:16.378Z,8.03
2018-08-04T11:51:44.566Z,7.77
2018-08-04T11:54:12.757Z,8.40
2018-08-04T11:56:41.016Z,7.83
2018-08-04T11:59:09.443Z,7.77
2018-08-04T12:01:37.697Z,8.80
2018-08-04T12:04:06.178Z,8.33
2018-08-04T12:06:34.359Z,8.57
2018-08-04T12:09:05.594Z,7.57
2018-08-04T12:11:33.818Z,7.40
2018-08-04T12:14:02.264Z,7.93
2018-08-04T12:16:30.466Z,7.30
2018-08-04T12:18:58.685Z,9.40
2018-08-04T12:21:26.876Z,7.10
2018-08-04T12:26:34.268Z,7.37
2018-08-04T12:29:04.054Z,6.87
2018-08-04T12:31:32.397Z,7.00
2018-08-04T12:34:00.551Z,7.40
2018-08-04T12:36:28.736Z,6.20
2018-08-04T12:38:57.076Z,6.20
2018-08-04T12:41:25.390Z,6.13
2018-08-04T12:43:53.618Z,9.10
2018-08-04T12:46:21.909Z,6.20
2018-08-04T12:48:50.881Z,7.13
2018-08-04T12:51:19.078Z,5.93
2018-08-04T12:53:48.426Z,6.67
2018-08-04T12:56:17.163Z,8.73
2018-08-04T12:58:45.469Z,6.50
2018-08-04T13:01:13.738Z,8.30
2018-08-04T13:03:41.973Z,6.83
2018-08-04T13:06:10.349Z,7.27
2018-08-04T13:08:38.913Z,7.73
2018-08-04T13:11:07.108Z,7.40
2018-08-04T13:13:35.720Z,8.63
2018-08-04T13:16:03.894Z,7.73
2018-08-04T13:18:32.147Z,7.87
2018-08-04T13:21:00.446Z,8.53
2018-08-04T13:23:28.726Z,8.40
2018-08-04T13:25:56.929Z,7.87
2018-08-04T13:28:25.694Z,7.93
2018-08-04T13:30:54.151Z,8.27
2018-08-04T13:33:22.342Z,8.80
2018-08-04T13:35:50.549Z,8.30
2018-08-04T13:38:18.759Z,8.33
2018-08-04T13:40:47.165Z,8.87
2018-08-04T13:43:15.470Z,11.47
2018-08-04T13:45:43.717Z,7.97
2018-08-04T13:48:11.955Z,14.20
2018-08-04T13:50:40.206Z,7.80
2018-08-04T13:53:08.745Z,7.87
2018-08-04T13:55:36.962Z,7.97
2018-08-04T13:58:05.417Z,10.70
2018-08-04T14:00:33.762Z,9.73
2018-08-04T14:03:02.743Z,10.63
2018-08-04T14:05:31.115Z,10.13
2018-08-04T14:07:59.313Z,8.77
2018-08-04T14:10:27.511Z,10.63
2018-08-04T14:12:55.776Z,8.83
2018-08-04T14:15:24.004Z,10.47
2018-08-04T14:17:52.918Z,15.03
2018-08-04T14:20:22.289Z,9.70
2018-08-04T14:22:51.146Z,11.40
2018-08-04T14:25:19.947Z,10.00
2018-08-04T14:27:48.907Z,9.30
2018-08-04T14:30:17.930Z,10.23
2018-08-04T14:32:48.053Z,10.40
2018-08-04T14:35:16.943Z,8.20
2018-08-04T14:37:46.053Z,7.43
2018-08-04T14:40:14.907Z,7.73
2018-08-04T14:42:43.710Z,9.37
2018-08-04T14:45:12.606Z,8.57
2018-08-04T14:47:41.394Z,10.87
2018-08-04T14:50:11.055Z,11.20
2018-08-04T14:52:39.438Z,13.13
2018-08-04T14:55:07.981Z,9.77
2018-08-04T14:57:36.203Z,10.40
2018-08-04T15:00:05.076Z,12.07
2018-08-04T15:02:33.313Z,11.00
2018-08-04T15:05:01.714Z,11.87
2018-08-04T15:07:29.807Z,14.30
2018-08-04T15:09:58.051Z,11.90
2018-08-04T15:12:26.271Z,10.10
2018-08-04T15:14:54.594Z,10.73
2018-08-04T15:17:22.832Z,9.87
2018-08-04T15:19:54.371Z,9.67
2018-08-04T15:22:22.655Z,11.70
2018-08-04T15:24:50.874Z,11.97
2018-08-04T15:27:19.086Z,9.63
2018-08-04T15:29:47.645Z,10.30
2018-08-04T15:32:15.927Z,10.17
2018-08-04T15:34:44.123Z,10.50
2018-08-04T15:37:12.410Z,11.10
2018-08-04T15:39:40.709Z,12.30
2018-08-04T15:42:08.999Z,20.90
2018-08-04T15:44:37.937Z,10.13
2018-08-04T15:47:06.197Z,19.27
2018-08-04T15:49:34.503Z,24.93
2018-08-04T15:52:02.923Z,18.40
2018-08-04T15:54:31.309Z,20.13
2018-08-04T15:56:59.522Z,15.30
2018-08-04T15:59:27.718Z,15.10
2018-08-04T16:01:55.976Z,15.07
2018-08-04T16:04:24.283Z,13.43
2018-08-04T16:06:52.530Z,11.87
2018-08-04T16:09:20.837Z,11.57
2018-08-04T16:11:49.017Z,13.97
2018-08-04T16:14:17.309Z,12.67
2018-08-04T16:16:45.573Z,17.83
2018-08-04T16:19:13.768Z,10.70
2018-08-04T16:21:42.033Z,12.63
2018-08-04T16:24:10.361Z,11.40
2018-08-04T16:26:38.684Z,10.43
2018-08-04T16:29:06.895Z,12.27
2018-08-04T16:31:35.130Z,13.40
2018-08-04T16:34:03.502Z,12.20
2018-08-04T16:36:31.979Z,11.57
2018-08-04T16:39:00.186Z,10.17
2018-08-04T16:41:28.374Z,10.70
2018-08-04T16:46:31.217Z,11.77
2018-08-04T16:48:59.434Z,9.60
2018-08-04T16:51:28.015Z,14.43
2018-08-04T16:53:56.437Z,11.43
2018-08-04T16:56:24.927Z,11.07
2018-08-04T16:58:53.169Z,9.53
2018-08-04T17:01:21.390Z,11.57
2018-08-04T17:03:49.648Z,10.80
2018-08-04T17:06:18.732Z,11.27
2018-08-04T17:08:47.119Z,11.80
2018-08-04T17:11:15.659Z,12.47
2018-08-04T17:13:43.907Z,10.83
2018-08-04T17:16:12.182Z,13.07
2018-08-04T17:18:40.447Z,11.80
2018-08-04T17:21:08.826Z,10.67
2018-08-04T17:23:37.080Z,13.00
2018-08-04T17:26:05.396Z,11.63
2018-08-04T17:28:33.706Z,10.80
2018-08-04T17:31:02.471Z,10.63
2018-08-04T17:33:30.721Z,10.27
2018-08-04T17:35:58.963Z,11.57
2018-08-04T17:38:27.200Z,11.47
2018-08-04T17:40:55.683Z,10.10
2018-08-04T17:43:23.987Z,10.17
2018-08-04T17:45:52.247Z,12.27
2018-08-04T17:48:20.494Z,10.33
2018-08-04T17:50:48.718Z,9.93
2018-08-04T17:53:16.950Z,11.93
2018-08-04T17:55:45.156Z,10.80
2018-08-04T17:58:13.337Z,13.73
2018-08-04T18:00:41.601Z,12.17
2018-08-04T18:03:10.454Z,16.13
2018-08-04T18:05:38.867Z,11.50
2018-08-04T18:08:07.111Z,10.60
2018-08-04T18:10:35.927Z,10.53
2018-08-04T18:13:04.216Z,11.37
2018-08-04T18:15:32.634Z,12.70
2018-08-04T18:18:01.036Z,13.20
2018-08-04T18:20:29.290Z,12.50
2018-08-04T18:22:57.554Z,13.60
2018-08-04T18:25:25.889Z,13.00
2018-08-04T18:27:54.398Z,12.00
2018-08-04T18:30:23.156Z,10.97
2018-08-04T18:32:51.465Z,12.77
2018-08-04T18:35:19.822Z,12.37
2018-08-04T18:37:48.192Z,14.37
2018-08-04T18:40:16.504Z,12.03
2018-08-04T18:42:45.293Z,12.57
2018-08-04T18:45:13.522Z,13.27
2018-08-04T18:47:41.805Z,12.30
2018-08-04T18:50:10.234Z,16.83
2018-08-04T18:52:38.534Z,13.17
2018-08-04T18:55:06.778Z,11.40
2018-08-04T18:57:35.102Z,12.73
2018-08-04T19:00:03.793Z,12.63
2018-08-04T19:02:33.093Z,11.23
2018-08-04T19:05:01.081Z,15.13
2018-08-04T19:07:29.418Z,13.27
2018-08-04T19:09:57.662Z,12.50
2018-08-04T19:12:25.941Z,12.07
2018-08-04T19:14:54.713Z,13.47
2018-08-04T19:17:23.191Z,11.80
2018-08-04T19:19:51.427Z,11.60
2018-08-04T19:22:19.820Z,11.87
2018-08-04T19:24:48.035Z,12.67
2018-08-04T19:27:16.401Z,11.80
2018-08-04T19:29:45.150Z,12.40
2018-08-04T19:32:13.370Z,12.17
2018-08-04T19:34:41.614Z,14.03
2018-08-04T19:37:09.890Z,13.80
2018-08-04T19:39:38.179Z,14.23
2018-08-04T19:42:06.419Z,14.17
2018-08-04T19:44:34.743Z,15.03
2018-08-04T19:47:03.119Z,16.53
2018-08-04T19:49:31.375Z,13.43
2018-08-04T19:51:59.637Z,13.20
2018-08-04T19:54:27.942Z,14.87
2018-08-04T19:56:56.460Z,15.73
2018-08-04T19:59:24.823Z,12.87
2018-08-04T20:01:54.103Z,12.70
2018-08-04T20:04:22.319Z,12.70
2018-08-04T20:06:50.575Z,12.87
2018-08-04T20:09:18.807Z,13.47
2018-08-04T20:11:47.367Z,15.77
2018-08-04T20:14:15.865Z,12.60
2018-08-04T20:16:44.053Z,30.90
2018-08-04T20:19:12.263Z,26.23
2018-08-04T20:21:40.619Z,13.90
2018-08-04T20:24:09.000Z,13.13
2018-08-04T20:26:37.336Z,14.53
2018-08-04T20:29:05.640Z,13.33
2018-08-04T20:31:33.819Z,16.77
2018-08-04T20:34:02.271Z,15.37
2018-08-04T20:36:30.635Z,12.57
2018-08-04T20:38:58.858Z,12.60
2018-08-04T20:41:27.171Z,14.40
2018-08-04T20:43:55.728Z,13.93
2018-08-04T20:46:24.156Z,14.70
2018-08-04T20:48:52.654Z,14.50
2018-08-04T20:51:20.877Z,14.23
2018-08-04T20:53:49.146Z,14.20
2018-08-04T20:56:17.848Z,13.30
2018-08-04T20:58:46.233Z,16.47
2018-08-04T21:01:25.970Z,17.17
2018-08-04T21:03:54.319Z,16.13
2018-08-04T21:06:22.551Z,17.47
2018-08-04T21:08:50.782Z,16.13
2018-08-04T21:11:19.303Z,17.87
2018-08-04T21:13:47.883Z,17.97
2018-08-04T21:16:16.635Z,14.30
2018-08-04T21:18:44.855Z,17.40
2018-08-04T21:21:13.103Z,15.40
2018-08-04T21:23:41.580Z,14.67
2018-08-04T21:26:09.908Z,14.67
2018-08-04T21:28:38.235Z,17.27
2018-08-04T21:31:06.431Z,16.53
2018-08-04T21:33:35.035Z,14.97
2018-08-04T21:36:03.245Z,15.63
2018-08-04T21:38:31.480Z,18.60
2018-08-04T21:40:59.763Z,16.30
2018-08-04T21:43:28.053Z,17.37
2018-08-04T21:45:56.298Z,16.97
2018-08-04T21:48:24.688Z,17.83
2018-08-04T21:50:59.335Z,15.03
2018-08-04T21:53:27.590Z,16.97
2018-08-04T21:55:55.954Z,14.90
2018-08-04T21:58:24.200Z,14.63
2018-08-04T22:00:57.999Z,16.67
2018-08-04T22:03:26.278Z,17.80
2018-08-04T22:05:54.696Z,15.23
2018-08-04T22:08:34.329Z,16.17
2018-08-04T22:11:02.681Z,16.43
2018-08-04T22:13:31.115Z,14.77
2018-08-04T22:15:59.455Z,14.63
2018-08-04T22:18:27.727Z,15.67
2018-08-04T22:20:56.011Z,15.97
2018-08-04T22:23:24.229Z,15.10
2018-08-04T22:25:52.517Z,16.40
2018-08-04T22:28:20.729Z,20.07
2018-08-04T22:30:48.958Z,18.03
2018-08-04T22:33:17.427Z,19.47
2018-08-04T22:35:45.804Z,16.93
2018-08-04T22:38:14.024Z,21.47
2018-08-04T22:40:42.242Z,17.07
2018-08-04T22:43:10.590Z,18.37
2018-08-04T22:45:57.818Z,20.73
2018-08-04T22:48:26.210Z,18.30
2018-08-04T22:50:54.335Z,19.70
2018-08-04T22:53:22.559Z,18.83
2018-08-04T22:55:50.814Z,18.10
2018-08-04T22:58:19.231Z,15.00
2018-08-04T23:00:47.535Z,16.40
2018-08-04T23:03:15.859Z,15.67
2018-08-04T23:05:44.054Z,16.20
2018-08-04T23:08:12.997Z,16.33
2018-08-04T23:10:41.684Z,16.63
2018-08-04T23:13:10.558Z,16.77
2018-08-04T23:15:39.373Z,17.70
2018-08-04T23:18:07.822Z,20.57
2018-08-04T23:20:36.237Z,17.67
2018-08-04T23:23:04.558Z,18.13
2018-08-04T23:25:33.037Z,18.27
2018-08-04T23:28:01.701Z,18.63
2018-08-04T23:30:29.973Z,17.40
2018-08-04T23:32:58.199Z,21.97
2018-08-04T23:35:27.118Z,18.00
2018-08-04T23:37:55.747Z,16.00
2018-08-04T23:40:24.313Z,17.17
2018-08-04T23:42:52.601Z,18.30
2018-08-04T23:45:21.215Z,16.63
2018-08-04T23:47:49.441Z,17.43
2018-08-04T23:50:17.769Z,18.70
2018-08-04T23:52:46.150Z,16.07
2018-08-04T23:55:14.384Z,16.57
2018-08-04T23:57:42.658Z,16.13
